KSEE/SEE METAR and TAF weather

Enter ICAO airport designator
Station Type Date Time Source
KSEE METAR 2020/03/29 14:47 UTC NOAA

KSEE 291447Z 00000KT 10SM SKC 08/07 A3011


Station Type Date Time Source
KSEE Decoded METAR 2020/03/29 14:47 UTC NOAA

San Diego/El Cajon, Gillespie Field Airport, CA, United States (KSEE) 32-49-34N 116-58-20W
Mar 29, 2020 - 10:47 AM EDT / 2020.03.29 1447 UTC
Wind: Calm:0
Visibility: 10 mile(s):0
Sky conditions: clear
Temperature: 46 F (8 C)
Dew Point: 44 F (7 C)
Relative Humidity: 93%
Pressure (altimeter): 30.11 in. Hg (1019 hPa)
ob: KSEE 291447Z 00000KT 10SM SKC 08/07 A3011
cycle: 15

Station Type Date Time Source
KSEE TAF UTC NOAA

Error!

Example: see airport list